createdAt,value
2023-01-17T00:00:43.446Z,96074.25
2023-01-17T00:04:16.819Z,96071.19
2023-01-17T00:07:41.767Z,96045.47
2023-01-17T00:10:45.254Z,96040.94
2023-01-17T00:13:49.127Z,96041.25
2023-01-17T00:16:54.369Z,96047.03
2023-01-17T00:20:18.115Z,96042.78
2023-01-17T00:23:57.192Z,96037.97
2023-01-17T00:27:12.299Z,96027.63
2023-01-17T00:30:15.598Z,96018.03
2023-01-17T00:33:20.799Z,96014.72
2023-01-17T00:36:23.031Z,96010.66
2023-01-17T00:39:25.755Z,95995.25
2023-01-17T00:42:28.282Z,95993.47
2023-01-17T00:45:49.649Z,95981.13
2023-01-17T00:49:12.094Z,95998.03
2023-01-17T00:52:33.284Z,96002.06
2023-01-17T00:55:54.004Z,95987.91
2023-01-17T00:59:17.187Z,95966.44
2023-01-17T01:02:37.953Z,95979.06
2023-01-17T01:06:01.084Z,95980.63
2023-01-17T01:09:22.379Z,95972.53
2023-01-17T01:12:43.771Z,95961.91
2023-01-17T01:16:04.663Z,95944.97
2023-01-17T01:19:26.209Z,95937.16
2023-01-17T01:22:48.449Z,95929.59
2023-01-17T01:26:09.539Z,95942.19
2023-01-17T01:29:30.377Z,95934.63
2023-01-17T01:32:51.959Z,95926.75
2023-01-17T01:35:56.471Z,95923.97
2023-01-17T01:39:02.128Z,95927.53
2023-01-17T01:42:09.787Z,95915.94
2023-01-17T01:45:21.137Z,95910.13
2023-01-17T01:48:37.162Z,95916.72
2023-01-17T01:51:47.223Z,95914.19
2023-01-17T01:54:55.218Z,95936.94
2023-01-17T01:58:03.431Z,95959.38
2023-01-17T02:01:09.805Z,95957.38
2023-01-17T02:04:15.931Z,95966.47
2023-01-17T02:07:25.064Z,95979.59
2023-01-17T02:10:33.515Z,95962.69
2023-01-17T02:13:37.707Z,95974.78
2023-01-17T02:16:59.742Z,95977.06
2023-01-17T02:20:44.120Z,95971.53
2023-01-17T02:24:23.986Z,95981.88
2023-01-17T02:27:39.203Z,95993.00
2023-01-17T02:30:48.930Z,95988.44
2023-01-17T02:33:59.471Z,95982.88
2023-01-17T02:37:13.147Z,95972.53
2023-01-17T02:40:24.550Z,95965.22
2023-01-17T02:43:29.181Z,95950.28
2023-01-17T02:46:34.472Z,95937.41
2023-01-17T02:49:38.587Z,95929.81
2023-01-17T02:52:53.832Z,95944.94
2023-01-17T02:56:06.704Z,95948.28
2023-01-17T02:59:22.120Z,95961.91
2023-01-17T03:02:38.822Z,95966.19
2023-01-17T03:05:47.595Z,95964.44
2023-01-17T03:08:53.871Z,95974.28
2023-01-17T03:11:59.548Z,95975.53
2023-01-17T03:15:03.574Z,95989.94
2023-01-17T03:18:14.293Z,95992.25
2023-01-17T03:21:18.403Z,95995.75
2023-01-17T03:24:21.803Z,96000.31
2023-01-17T03:27:25.678Z,96005.38
2023-01-17T03:30:29.139Z,95999.78
2023-01-17T03:33:34.472Z,96005.06
2023-01-17T03:36:37.947Z,96002.84
2023-01-17T03:39:41.920Z,96015.94
2023-01-17T03:42:46.351Z,96003.06
2023-01-17T03:45:52.250Z,96009.88
2023-01-17T03:48:57.325Z,96002.59
2023-01-17T03:52:01.441Z,95989.94
2023-01-17T03:55:07.075Z,96004.59
2023-01-17T03:58:11.240Z,96009.16
2023-01-17T04:01:15.976Z,95998.56
2023-01-17T04:04:21.872Z,95997.28
2023-01-17T04:07:26.507Z,96004.63
2023-01-17T04:10:31.485Z,96014.22
2023-01-17T04:13:35.100Z,96005.88
2023-01-17T04:16:39.789Z,96021.28
2023-01-17T04:19:45.038Z,96028.38
2023-01-17T04:22:48.951Z,96020.28
2023-01-17T04:25:52.428Z,96019.75
2023-01-17T04:28:56.930Z,96025.81
2023-01-17T04:32:00.538Z,96029.09
2023-01-17T04:35:07.225Z,96021.25
2023-01-17T04:38:10.937Z,96014.69
2023-01-17T04:41:14.857Z,96028.59
2023-01-17T04:44:19.598Z,96014.94
2023-01-17T04:47:23.897Z,96028.59
2023-01-17T04:50:30.095Z,96033.16
2023-01-17T04:53:34.484Z,96059.94
2023-01-17T04:56:38.935Z,96057.16
2023-01-17T04:59:42.947Z,96067.00
2023-01-17T05:02:46.494Z,96081.44
2023-01-17T05:05:51.841Z,96100.38
2023-01-17T05:08:55.393Z,96105.78
2023-01-17T05:11:59.355Z,96124.81
2023-01-17T05:15:03.445Z,96134.19
2023-01-17T05:18:08.878Z,96153.16
2023-01-17T05:21:13.822Z,96157.00
2023-01-17T05:24:18.904Z,96175.66
2023-01-17T05:27:22.364Z,96182.50
2023-01-17T05:30:26.797Z,96191.59
2023-01-17T05:33:30.318Z,96192.38
2023-01-17T05:36:37.215Z,96200.63
2023-01-17T05:39:42.063Z,96198.16
2023-01-17T05:42:47.475Z,96208.28
2023-01-17T05:45:51.182Z,96223.78
2023-01-17T05:48:55.935Z,96230.69
2023-01-17T05:52:20.679Z,96219.59
2023-01-17T05:55:26.211Z,96231.00
2023-01-17T05:58:30.000Z,96240.66
2023-01-17T06:01:33.874Z,96222.22
2023-01-17T06:04:37.700Z,96229.06
2023-01-17T06:07:45.142Z,96226.78
2023-01-17T06:10:48.944Z,96222.22
2023-01-17T06:13:53.451Z,96214.91
2023-01-17T06:16:57.003Z,96208.84
2023-01-17T06:20:00.786Z,96204.25
2023-01-17T06:23:07.617Z,96198.78
2023-01-17T06:26:12.010Z,96199.03
2023-01-17T06:29:15.625Z,96206.13
2023-01-17T06:32:19.648Z,96209.28
2023-01-17T06:35:23.356Z,96212.84
2023-01-17T06:38:29.998Z,96227.78
2023-01-17T06:41:33.497Z,96235.66
2023-01-17T06:44:37.264Z,96235.19
2023-01-17T06:47:41.204Z,96236.47
2023-01-17T06:50:47.996Z,96241.47
2023-01-17T06:53:53.327Z,96248.31
2023-01-17T06:56:57.109Z,96240.94
2023-01-17T07:00:00.508Z,96259.19
2023-01-17T07:03:04.515Z,96257.94
2023-01-17T07:06:09.963Z,96267.78
2023-01-17T07:09:16.515Z,96260.91
2023-01-17T07:12:20.384Z,96254.78
2023-01-17T07:15:24.330Z,96273.34
2023-01-17T07:18:27.967Z,96266.53
2023-01-17T07:21:32.437Z,96261.47
2023-01-17T07:24:38.986Z,96269.84
2023-01-17T07:27:43.191Z,96286.81
2023-01-17T07:30:47.049Z,96274.91
2023-01-17T07:33:51.123Z,96289.38
2023-01-17T07:36:54.788Z,96286.59
2023-01-17T07:40:02.505Z,96285.81
2023-01-17T07:43:13.580Z,96305.31
2023-01-17T07:46:19.384Z,96301.25
2023-01-17T07:49:24.159Z,96305.81
2023-01-17T07:52:28.031Z,96304.09
2023-01-17T07:55:33.445Z,96295.72
2023-01-17T07:58:37.671Z,96274.47
2023-01-17T08:01:41.934Z,96294.97
2023-01-17T08:04:45.863Z,96296.50
2023-01-17T08:07:49.418Z,96286.91
2023-01-17T08:10:55.058Z,96286.13
2023-01-17T08:13:59.898Z,96288.13
2023-01-17T08:17:07.709Z,96292.47
2023-01-17T08:20:12.138Z,96290.72
2023-01-17T08:23:16.587Z,96281.59
2023-01-17T08:26:23.507Z,96279.56
2023-01-17T08:29:27.488Z,96285.66
2023-01-17T08:32:30.881Z,96262.56
2023-01-17T08:35:36.177Z,96297.53
2023-01-17T08:38:44.002Z,96289.19
2023-01-17T08:41:49.570Z,96287.91
2023-01-17T08:44:53.274Z,96283.88
2023-01-17T08:47:59.226Z,96285.88
2023-01-17T08:51:03.378Z,96282.34
2023-01-17T08:54:07.522Z,96280.06
2023-01-17T08:57:12.591Z,96300.06
2023-01-17T09:00:18.920Z,96307.63
2023-01-17T09:03:22.451Z,96293.16
2023-01-17T09:06:26.183Z,96291.94
2023-01-17T09:09:29.699Z,96283.31
2023-01-17T09:12:36.937Z,96290.63
2023-01-17T09:15:40.489Z,96273.38
2023-01-17T09:18:45.406Z,96288.34
2023-01-17T09:21:48.821Z,96276.63
2023-01-17T09:24:53.304Z,96259.34
2023-01-17T09:27:58.160Z,96252.97
2023-01-17T09:31:08.702Z,96255.00
2023-01-17T09:34:12.137Z,96246.56
2023-01-17T09:37:16.051Z,96235.59
2023-01-17T09:40:22.307Z,96243.47
2023-01-17T09:43:40.836Z,96233.31
2023-01-17T09:46:47.982Z,96221.38
2023-01-17T09:49:56.604Z,96197.38
2023-01-17T09:53:02.923Z,96204.19
2023-01-17T09:56:12.170Z,96179.81
2023-01-17T09:59:35.323Z,96185.59
2023-01-17T10:02:52.130Z,96179.00
2023-01-17T10:06:04.505Z,96171.84
2023-01-17T10:09:34.946Z,96164.69
2023-01-17T10:12:50.815Z,96166.44
2023-01-17T10:16:12.561Z,96161.50
2023-01-17T10:19:32.701Z,96169.75
2023-01-17T10:22:56.988Z,96162.81
2023-01-17T10:26:03.659Z,96161.28
2023-01-17T10:29:20.060Z,96158.72
2023-01-17T10:32:30.858Z,96156.78
2023-01-17T10:35:45.090Z,96147.25
2023-01-17T10:38:51.944Z,96143.72
2023-01-17T10:41:59.189Z,96129.66
2023-01-17T10:45:06.884Z,96120.34
2023-01-17T10:48:16.972Z,96120.94
2023-01-17T10:51:43.101Z,96120.56
2023-01-17T10:55:05.188Z,96131.03
2023-01-17T10:58:12.610Z,96112.19
2023-01-17T11:01:21.409Z,96110.91
2023-01-17T11:04:35.869Z,96099.00
2023-01-17T11:07:44.269Z,96100.69
2023-01-17T11:10:54.088Z,96082.34
2023-01-17T11:14:01.114Z,96092.28
2023-01-17T11:17:07.128Z,96065.63
2023-01-17T11:20:20.257Z,96069.00
2023-01-17T11:23:26.771Z,96047.22
2023-01-17T11:26:33.131Z,96038.66
2023-01-17T11:29:38.946Z,96024.50
2023-01-17T11:32:55.393Z,96033.78
2023-01-17T11:36:00.578Z,96012.66
2023-01-17T11:39:07.695Z,95998.03
2023-01-17T11:42:33.744Z,96001.16
2023-01-17T11:45:39.502Z,95995.88
2023-01-17T11:48:42.977Z,95991.97
2023-01-17T11:51:48.287Z,95983.31
2023-01-17T11:54:56.670Z,95973.59
2023-01-17T11:58:01.193Z,95965.44
2023-01-17T12:01:22.525Z,95953.53
2023-01-17T12:04:36.682Z,95940.31
2023-01-17T12:07:50.358Z,95934.38
2023-01-17T12:11:04.028Z,95935.03
2023-01-17T12:14:18.412Z,95911.78
2023-01-17T12:17:38.191Z,95919.09
2023-01-17T12:20:54.495Z,95913.50
2023-01-17T12:24:14.689Z,95885.16
2023-01-17T12:27:26.028Z,95890.59
2023-01-17T12:30:48.145Z,95881.97
2023-01-17T12:33:57.340Z,95883.03
2023-01-17T12:37:08.176Z,95882.00
2023-01-17T12:40:25.659Z,95867.59
2023-01-17T12:43:33.529Z,95867.59
2023-01-17T12:46:44.140Z,95862.53
2023-01-17T12:49:53.528Z,95857.63
2023-01-17T12:53:06.077Z,95851.47
2023-01-17T12:56:19.632Z,95854.69
2023-01-17T12:59:30.993Z,95854.03
2023-01-17T13:02:41.163Z,95846.75
2023-01-17T13:05:48.650Z,95847.44
2023-01-17T13:08:59.188Z,95829.91
2023-01-17T13:12:07.415Z,95823.50
2023-01-17T13:15:17.531Z,95807.44
2023-01-17T13:18:26.103Z,95816.69
2023-01-17T13:21:32.487Z,95812.44
2023-01-17T13:24:46.409Z,95795.88
2023-01-17T13:28:04.487Z,95792.31
2023-01-17T13:31:34.155Z,95797.31
2023-01-17T13:35:13.932Z,95793.69
2023-01-17T13:38:37.520Z,95791.81
2023-01-17T13:41:50.915Z,95796.25
2023-01-17T13:44:56.688Z,95794.53
2023-01-17T13:48:28.464Z,95783.53
2023-01-17T13:52:07.799Z,95765.72
2023-01-17T13:55:45.681Z,95751.81
2023-01-17T13:59:02.732Z,95755.97
2023-01-17T14:02:40.183Z,95753.88
2023-01-17T14:05:56.844Z,95739.03
2023-01-17T14:09:03.868Z,95731.41
2023-01-17T14:12:25.365Z,95733.59
2023-01-17T14:15:32.866Z,95712.88
2023-01-17T14:18:43.308Z,95720.38
2023-01-17T14:21:47.437Z,95708.44
2023-01-17T14:25:01.422Z,95709.75
2023-01-17T14:28:21.157Z,95715.81
2023-01-17T14:31:26.071Z,95704.16
2023-01-17T14:34:31.803Z,95700.75
2023-01-17T14:37:45.761Z,95686.84
2023-01-17T14:40:54.347Z,95693.84
2023-01-17T14:44:01.068Z,95695.59
2023-01-17T14:47:18.787Z,95688.25
2023-01-17T14:50:30.374Z,95683.59
2023-01-17T14:53:39.291Z,95665.38
2023-01-17T14:56:43.787Z,95665.00
2023-01-17T14:59:47.719Z,95666.31
2023-01-17T15:02:53.214Z,95656.63
2023-01-17T15:06:11.000Z,95657.06
2023-01-17T15:09:20.135Z,95646.75
2023-01-17T15:12:24.368Z,95636.63
2023-01-17T15:15:30.337Z,95611.91
2023-01-17T15:18:40.005Z,95610.81
2023-01-17T15:21:50.632Z,95587.81
2023-01-17T15:24:55.002Z,95590.84
2023-01-17T15:27:58.935Z,95571.59
2023-01-17T15:31:09.584Z,95573.50
2023-01-17T15:34:22.611Z,95566.06
2023-01-17T15:37:32.632Z,95552.09
2023-01-17T15:40:45.790Z,95548.47
2023-01-17T15:43:50.105Z,95563.41
2023-01-17T15:46:54.124Z,95554.28
2023-01-17T15:49:58.715Z,95558.13
2023-01-17T15:53:06.071Z,95562.22
2023-01-17T15:56:29.331Z,95561.38
2023-01-17T15:59:45.519Z,95563.66
2023-01-17T16:02:55.514Z,95559.66
2023-01-17T16:06:03.186Z,95543.75
2023-01-17T16:09:21.556Z,95547.53
2023-01-17T16:12:25.383Z,95555.47
2023-01-17T16:15:32.237Z,95555.78
2023-01-17T16:18:36.447Z,95541.28
2023-01-17T16:21:46.912Z,95534.63
2023-01-17T16:24:52.748Z,95534.50
2023-01-17T16:27:56.853Z,95545.78
2023-01-17T16:31:00.906Z,95550.94
2023-01-17T16:34:04.716Z,95565.47
2023-01-17T16:37:08.293Z,95568.16
2023-01-17T16:40:15.261Z,95556.53
2023-01-17T16:43:20.896Z,95548.25
2023-01-17T16:46:26.062Z,95535.16
2023-01-17T16:49:33.332Z,95536.88
2023-01-17T16:52:37.427Z,95534.28
2023-01-17T16:55:43.408Z,95532.59
2023-01-17T16:58:47.428Z,95546.13
2023-01-17T17:01:53.090Z,95531.00
2023-01-17T17:04:57.066Z,95527.66
2023-01-17T17:08:00.812Z,95533.56
2023-01-17T17:11:17.518Z,95529.13
2023-01-17T17:14:21.323Z,95514.44
2023-01-17T17:17:26.569Z,95521.09
2023-01-17T17:20:30.109Z,95531.28
2023-01-17T17:23:33.988Z,95527.66
2023-01-17T17:26:39.443Z,95512.84
2023-01-17T17:29:43.383Z,95524.44
2023-01-17T17:32:48.063Z,95509.72
2023-01-17T17:35:51.795Z,95516.69
2023-01-17T17:38:55.747Z,95514.53
2023-01-17T17:42:01.171Z,95506.06
2023-01-17T17:45:05.003Z,95516.25
2023-01-17T17:48:08.855Z,95512.91
2023-01-17T17:51:23.677Z,95505.19
2023-01-17T17:54:29.893Z,95503.47
2023-01-17T17:57:34.758Z,95510.56
2023-01-17T18:00:38.812Z,95487.44
2023-01-17T18:03:42.463Z,95472.84
2023-01-17T18:06:47.063Z,95481.63
2023-01-17T18:09:51.034Z,95474.22
2023-01-17T18:12:56.515Z,95484.09
2023-01-17T18:16:05.708Z,95496.91
2023-01-17T18:19:13.325Z,95496.69
2023-01-17T18:22:16.845Z,95498.94
2023-01-17T18:25:20.809Z,95493.34
2023-01-17T18:28:25.759Z,95502.81
2023-01-17T18:31:31.113Z,95507.34
2023-01-17T18:34:35.848Z,95502.06
2023-01-17T18:37:40.042Z,95508.31
2023-01-17T18:40:43.589Z,95513.47
2023-01-17T18:43:49.907Z,95524.84
2023-01-17T18:46:55.264Z,95513.34
2023-01-17T18:50:00.245Z,95517.97
2023-01-17T18:53:03.689Z,95521.94
2023-01-17T18:56:10.500Z,95519.16
2023-01-17T18:59:18.695Z,95520.53
2023-01-17T19:02:22.576Z,95518.59
2023-01-17T19:05:26.143Z,95516.56
2023-01-17T19:08:30.360Z,95514.28
2023-01-17T19:11:34.364Z,95519.31
2023-01-17T19:14:39.512Z,95513.66
2023-01-17T19:17:43.144Z,95517.72
2023-01-17T19:20:47.083Z,95508.91
2023-01-17T19:23:51.286Z,95514.72
2023-01-17T19:27:14.109Z,95515.25
2023-01-17T19:30:20.604Z,95494.94
2023-01-17T19:33:24.410Z,95497.75
2023-01-17T19:36:29.507Z,95496.91
2023-01-17T19:39:33.338Z,95495.69
2023-01-17T19:42:36.849Z,95494.38
2023-01-17T19:45:42.197Z,95500.53
2023-01-17T19:48:45.689Z,95490.00
2023-01-17T19:52:08.984Z,95506.31
2023-01-17T19:55:12.553Z,95494.63
2023-01-17T19:58:16.417Z,95500.44
2023-01-17T20:01:24.317Z,95507.41
2023-01-17T20:04:28.293Z,95500.75
2023-01-17T20:07:32.400Z,95511.53
2023-01-17T20:10:37.574Z,95496.47
2023-01-17T20:13:41.295Z,95492.69
2023-01-17T20:16:48.612Z,95485.75
2023-01-17T20:19:52.365Z,95464.59
2023-01-17T20:22:56.176Z,95474.16
2023-01-17T20:26:00.796Z,95475.69
2023-01-17T20:29:10.459Z,95465.69
2023-01-17T20:32:15.643Z,95442.91
2023-01-17T20:35:19.429Z,95455.28
2023-01-17T20:38:27.427Z,95476.44
2023-01-17T20:41:33.813Z,95467.53
2023-01-17T20:44:37.600Z,95446.72
2023-01-17T20:47:43.167Z,95456.25
2023-01-17T20:50:46.619Z,95474.63
2023-01-17T20:53:53.987Z,95475.69
2023-01-17T20:56:57.464Z,95476.56
2023-01-17T21:00:01.398Z,95472.69
2023-01-17T21:03:06.610Z,95478.91
2023-01-17T21:06:13.904Z,95488.78
2023-01-17T21:09:17.833Z,95493.63
2023-01-17T21:12:24.425Z,95484.06
2023-01-17T21:15:28.617Z,95462.81
2023-01-17T21:18:34.027Z,95465.91
2023-01-17T21:21:37.417Z,95477.75
2023-01-17T21:24:41.795Z,95478.91
2023-01-17T21:27:45.705Z,95466.69
2023-01-17T21:30:49.993Z,95506.84
2023-01-17T21:33:57.246Z,95523.25
2023-01-17T21:37:01.023Z,95525.50
2023-01-17T21:40:07.765Z,95516.91
2023-01-17T21:43:13.246Z,95489.09
2023-01-17T21:46:16.733Z,95511.78
2023-01-17T21:49:22.355Z,95545.50
2023-01-17T21:52:26.039Z,95577.53
2023-01-17T21:55:47.557Z,95563.44
2023-01-17T21:58:54.700Z,95508.22
2023-01-17T22:02:00.009Z,95508.84
2023-01-17T22:05:05.612Z,95523.75
2023-01-17T22:08:12.413Z,95521.63
2023-01-17T22:11:18.076Z,95530.00
2023-01-17T22:14:21.984Z,95542.06
2023-01-17T22:17:25.565Z,95547.75
2023-01-17T22:20:30.781Z,95549.56
2023-01-17T22:23:36.261Z,95539.47
2023-01-17T22:26:41.918Z,95537.56
2023-01-17T22:29:45.754Z,95526.16
2023-01-17T22:32:49.612Z,95538.72
2023-01-17T22:35:59.734Z,95513.91
2023-01-17T22:39:03.487Z,95530.53
2023-01-17T22:42:07.378Z,95534.22
2023-01-17T22:45:12.451Z,95553.41
2023-01-17T22:48:15.963Z,95568.91
2023-01-17T22:51:22.845Z,95562.03
2023-01-17T22:54:26.382Z,95576.44
2023-01-17T22:57:33.351Z,95564.41
2023-01-17T23:00:36.843Z,95566.56
2023-01-17T23:03:41.864Z,95573.84
2023-01-17T23:06:49.684Z,95565.91
2023-01-17T23:09:53.429Z,95572.03
2023-01-17T23:12:57.208Z,95578.16
2023-01-17T23:16:23.941Z,95598.16
2023-01-17T23:19:32.213Z,95606.09
2023-01-17T23:22:37.778Z,95597.06
2023-01-17T23:25:41.281Z,95592.00
2023-01-17T23:28:43.969Z,95574.16
2023-01-17T23:31:47.724Z,95573.19
2023-01-17T23:34:51.656Z,95584.63
2023-01-17T23:38:15.582Z,95599.97
2023-01-17T23:41:42.132Z,95591.38
2023-01-17T23:44:45.695Z,95587.31
2023-01-17T23:47:49.764Z,95579.03
2023-01-17T23:50:58.058Z,95581.06
2023-01-17T23:54:05.412Z,95594.28
2023-01-17T23:57:09.161Z,95599.88
